createdAt,value
2018-09-29T00:02:00.274Z,99.90
2018-09-29T00:04:29.002Z,99.90
2018-09-29T00:06:57.894Z,99.90
2018-09-29T00:09:26.603Z,99.90
2018-09-29T00:11:55.309Z,99.90
2018-09-29T00:14:24.012Z,99.90
2018-09-29T00:16:52.726Z,99.90
2018-09-29T00:19:21.429Z,99.90
2018-09-29T00:21:50.150Z,99.90
2018-09-29T00:24:18.834Z,99.90
2018-09-29T00:26:47.549Z,99.90
2018-09-29T00:29:16.247Z,99.90
2018-09-29T00:31:44.946Z,99.90
2018-09-29T00:34:13.669Z,99.90
2018-09-29T00:36:42.388Z,99.90
2018-09-29T00:39:11.089Z,99.90
2018-09-29T00:41:39.803Z,99.90
2018-09-29T00:44:08.910Z,99.90
2018-09-29T00:46:37.611Z,99.90
2018-09-29T00:49:06.327Z,99.90
2018-09-29T00:51:35.022Z,99.90
2018-09-29T00:54:10.274Z,99.90
2018-09-29T00:56:38.958Z,99.90
2018-09-29T00:59:07.671Z,99.90
2018-09-29T01:01:36.390Z,99.90
2018-09-29T01:04:05.093Z,99.90
2018-09-29T01:06:33.802Z,99.90
2018-09-29T01:09:02.504Z,99.90
2018-09-29T01:11:31.202Z,99.90
2018-09-29T01:13:59.909Z,99.90
2018-09-29T01:16:28.605Z,99.90
2018-09-29T01:18:57.319Z,99.90
2018-09-29T01:21:26.017Z,99.90
2018-09-29T01:23:54.726Z,99.90
2018-09-29T01:26:23.423Z,99.90
2018-09-29T01:28:52.146Z,99.90
2018-09-29T01:31:20.834Z,99.90
2018-09-29T01:33:49.637Z,99.90
2018-09-29T01:36:18.366Z,99.90
2018-09-29T01:38:47.088Z,99.90
2018-09-29T01:41:15.789Z,99.90
2018-09-29T01:43:44.513Z,99.90
2018-09-29T01:46:19.951Z,99.90
2018-09-29T01:48:48.678Z,99.90
2018-09-29T01:51:18.460Z,99.90
2018-09-29T01:53:47.185Z,99.90
2018-09-29T01:56:15.893Z,99.90
2018-09-29T01:58:44.607Z,99.90
2018-09-29T02:01:13.334Z,99.90
2018-09-29T02:03:42.050Z,99.90
2018-09-29T02:06:10.776Z,99.90
2018-09-29T02:08:39.482Z,99.90
2018-09-29T02:11:08.189Z,99.90
2018-09-29T02:13:36.898Z,99.90
2018-09-29T02:16:11.365Z,99.90
2018-09-29T02:18:40.262Z,99.90
2018-09-29T02:21:08.982Z,99.90
2018-09-29T02:23:37.737Z,99.90
2018-09-29T02:26:06.798Z,99.90
2018-09-29T02:28:35.511Z,99.90
2018-09-29T02:31:04.230Z,99.90
2018-09-29T02:33:32.958Z,99.90
2018-09-29T02:36:01.670Z,99.90
2018-09-29T02:38:30.387Z,99.90
2018-09-29T02:40:59.106Z,99.90
2018-09-29T02:43:44.374Z,99.90
2018-09-29T02:46:13.099Z,99.90
2018-09-29T02:48:41.802Z,99.90
2018-09-29T02:51:10.541Z,99.90
2018-09-29T02:53:39.270Z,99.90
2018-09-29T02:56:08.000Z,99.90
2018-09-29T02:58:36.707Z,99.90
2018-09-29T03:01:05.430Z,99.90
2018-09-29T03:03:34.117Z,99.90
2018-09-29T03:06:02.828Z,99.90
2018-09-29T03:08:31.670Z,99.90
2018-09-29T03:11:00.399Z,99.90
2018-09-29T03:13:29.085Z,99.90
2018-09-29T03:15:57.817Z,99.90
2018-09-29T03:18:26.531Z,99.90
2018-09-29T03:20:55.263Z,99.90
2018-09-29T03:23:23.967Z,99.90
2018-09-29T03:25:52.683Z,99.90
2018-09-29T03:28:21.395Z,99.90
2018-09-29T03:30:50.278Z,99.90
2018-09-29T03:33:19.002Z,99.90
2018-09-29T03:35:47.725Z,99.90
2018-09-29T03:38:16.602Z,99.90
2018-09-29T03:40:45.309Z,99.90
2018-09-29T03:43:14.063Z,99.90
2018-09-29T03:45:42.774Z,99.90
2018-09-29T03:48:11.481Z,99.90
2018-09-29T03:50:40.170Z,99.90
2018-09-29T03:53:08.911Z,99.90
2018-09-29T03:55:40.767Z,99.90
2018-09-29T03:58:09.487Z,99.90
2018-09-29T04:00:38.202Z,99.90
2018-09-29T04:03:06.909Z,99.90
2018-09-29T04:05:35.610Z,99.90
2018-09-29T04:08:04.354Z,99.90
2018-09-29T04:10:33.062Z,99.90
2018-09-29T04:13:01.790Z,99.90
2018-09-29T04:15:30.518Z,99.90
2018-09-29T04:17:59.237Z,99.90
2018-09-29T04:20:27.952Z,99.90
2018-09-29T04:22:56.678Z,99.90
2018-09-29T04:25:25.386Z,99.90
2018-09-29T04:27:54.132Z,99.90
2018-09-29T04:30:22.835Z,99.90
2018-09-29T04:32:51.549Z,99.90
2018-09-29T04:35:20.258Z,99.90
2018-09-29T04:37:48.981Z,99.90
2018-09-29T04:40:17.706Z,99.90
2018-09-29T04:43:09.628Z,99.90
2018-09-29T04:45:38.273Z,99.90
2018-09-29T04:48:07.119Z,99.90
2018-09-29T04:50:35.819Z,99.90
2018-09-29T04:53:04.562Z,99.90
2018-09-29T04:55:33.282Z,99.90
2018-09-29T04:58:02.001Z,99.90
2018-09-29T05:00:30.745Z,99.90
2018-09-29T05:02:59.474Z,99.90
2018-09-29T05:05:28.184Z,99.90
2018-09-29T05:07:56.902Z,99.90
2018-09-29T05:10:25.609Z,99.90
2018-09-29T05:12:54.317Z,99.90
2018-09-29T05:15:23.033Z,99.90
2018-09-29T05:17:51.729Z,99.90
2018-09-29T05:20:20.446Z,99.90
2018-09-29T05:22:49.141Z,99.90
2018-09-29T05:25:17.850Z,99.90
2018-09-29T05:27:46.533Z,99.90
2018-09-29T05:30:15.250Z,99.90
2018-09-29T05:32:43.962Z,99.90
2018-09-29T05:35:12.695Z,99.90
2018-09-29T05:37:41.414Z,99.90
2018-09-29T05:40:10.122Z,99.90
2018-09-29T05:42:38.834Z,99.90
2018-09-29T05:45:07.557Z,99.90
2018-09-29T05:47:49.730Z,99.90
2018-09-29T05:50:18.461Z,99.90
2018-09-29T05:52:51.210Z,99.90
2018-09-29T05:55:19.909Z,99.90
2018-09-29T05:57:48.701Z,99.90
2018-09-29T06:00:17.485Z,99.90
2018-09-29T06:02:53.765Z,99.90
2018-09-29T06:05:22.491Z,99.90
2018-09-29T06:07:51.183Z,99.90
2018-09-29T06:10:19.890Z,99.90
2018-09-29T06:18:44.601Z,99.90
2018-09-29T06:21:21.018Z,99.90
2018-09-29T06:23:49.894Z,99.90
2018-09-29T06:26:18.645Z,99.90
2018-09-29T06:28:47.346Z,99.90
2018-09-29T06:31:16.049Z,99.90
2018-09-29T06:33:45.908Z,99.90
2018-09-29T06:36:14.673Z,99.90
2018-09-29T06:44:46.081Z,99.90
2018-09-29T06:50:11.357Z,99.90
2018-09-29T06:52:40.373Z,99.90
2018-09-29T06:55:09.068Z,99.90
2018-09-29T06:57:37.887Z,99.90
2018-09-29T07:00:06.686Z,99.90
2018-09-29T07:02:46.362Z,99.90
2018-09-29T07:05:20.964Z,99.90
2018-09-29T07:07:49.679Z,99.90
2018-09-29T07:10:18.396Z,99.90
2018-09-29T07:12:47.125Z,99.90
2018-09-29T07:15:15.819Z,99.90
2018-09-29T07:17:44.511Z,99.90
2018-09-29T07:20:13.255Z,99.90
2018-09-29T07:22:48.541Z,99.90
2018-09-29T07:25:17.299Z,99.90
2018-09-29T07:27:45.953Z,99.90
2018-09-29T07:30:14.727Z,99.90
2018-09-29T07:32:43.426Z,99.90
2018-09-29T07:38:03.161Z,99.90
2018-09-29T07:40:32.059Z,99.90
2018-09-29T07:43:00.779Z,99.90
2018-09-29T07:45:29.487Z,99.90
2018-09-29T07:47:58.186Z,99.90
2018-09-29T07:50:26.911Z,99.90
2018-09-29T07:52:55.606Z,99.90
2018-09-29T07:55:24.318Z,99.90
2018-09-29T07:57:53.026Z,99.90
2018-09-29T08:00:21.718Z,99.90
2018-09-29T08:02:50.421Z,99.90
2018-09-29T08:05:19.125Z,99.90
2018-09-29T08:08:10.226Z,99.90
2018-09-29T08:10:40.458Z,99.90
2018-09-29T08:13:09.141Z,99.90
2018-09-29T08:15:37.854Z,99.90
2018-09-29T08:18:06.573Z,99.90
2018-09-29T08:20:35.277Z,99.90
2018-09-29T08:23:03.965Z,99.90
2018-09-29T08:25:32.716Z,99.90
2018-09-29T08:28:01.413Z,99.90
2018-09-29T08:30:30.126Z,99.90
2018-09-29T08:32:58.821Z,99.90
2018-09-29T08:35:44.233Z,99.90
2018-09-29T08:38:12.955Z,99.90
2018-09-29T08:40:41.663Z,99.90
2018-09-29T08:43:10.424Z,99.90
2018-09-29T08:45:39.114Z,99.90
2018-09-29T08:48:21.391Z,99.90
2018-09-29T08:50:50.164Z,99.90
2018-09-29T08:53:18.895Z,99.90
2018-09-29T08:55:47.584Z,99.90
2018-09-29T08:58:16.322Z,99.90
2018-09-29T09:00:45.032Z,99.90
2018-09-29T09:03:13.742Z,99.90
2018-09-29T09:05:42.451Z,99.90
2018-09-29T09:08:11.157Z,99.90
2018-09-29T09:10:39.874Z,99.90
2018-09-29T09:13:08.581Z,99.90
2018-09-29T09:15:37.282Z,99.90
2018-09-29T09:18:05.999Z,99.90
2018-09-29T09:20:34.715Z,99.90
2018-09-29T09:23:03.547Z,99.90
2018-09-29T09:28:25.334Z,99.90
2018-09-29T09:30:54.030Z,99.90
2018-09-29T09:33:22.768Z,99.90
2018-09-29T09:35:51.473Z,99.90
2018-09-29T09:38:20.178Z,99.90
2018-09-29T09:40:53.857Z,99.90
2018-09-29T09:43:22.587Z,99.90
2018-09-29T09:45:51.285Z,99.90
2018-09-29T09:48:20.010Z,99.90
2018-09-29T09:50:48.714Z,99.90
2018-09-29T09:53:17.443Z,99.90
2018-09-29T09:55:46.154Z,99.90
2018-09-29T09:58:14.873Z,99.90
2018-09-29T10:00:52.874Z,99.90
2018-09-29T10:03:27.862Z,99.90
2018-09-29T10:05:56.826Z,99.90
2018-09-29T10:08:25.559Z,99.90
2018-09-29T10:10:54.448Z,99.90
2018-09-29T10:13:23.427Z,99.90
2018-09-29T10:15:52.280Z,99.90
2018-09-29T10:18:21.123Z,99.90
2018-09-29T10:23:40.881Z,99.90
2018-09-29T10:26:09.594Z,99.90
2018-09-29T10:28:38.425Z,99.90
2018-09-29T10:31:07.166Z,99.90
2018-09-29T10:33:35.882Z,99.90
2018-09-29T10:36:04.602Z,99.90
2018-09-29T10:38:33.334Z,99.90
2018-09-29T10:41:02.067Z,99.90
2018-09-29T10:43:30.790Z,99.90
2018-09-29T10:45:59.493Z,99.90
2018-09-29T10:48:28.211Z,99.90
2018-09-29T10:50:56.930Z,99.90
2018-09-29T10:53:25.633Z,99.90
2018-09-29T10:55:54.338Z,99.90
2018-09-29T10:58:23.077Z,99.90
2018-09-29T11:00:51.801Z,99.90
2018-09-29T11:03:20.521Z,99.90
2018-09-29T11:05:49.246Z,99.90
2018-09-29T11:08:17.973Z,99.90
2018-09-29T11:10:46.700Z,99.90
2018-09-29T11:13:15.439Z,99.90
2018-09-29T11:15:44.187Z,99.90
2018-09-29T11:18:12.893Z,99.90
2018-09-29T11:23:34.749Z,99.90
2018-09-29T11:29:18.021Z,99.90
2018-09-29T11:31:46.734Z,99.90
2018-09-29T11:37:07.738Z,99.90
2018-09-29T11:39:36.442Z,99.90
2018-09-29T11:42:05.141Z,99.90
2018-09-29T11:44:33.904Z,99.90
2018-09-29T11:47:16.060Z,99.90
2018-09-29T11:49:44.786Z,99.90
2018-09-29T11:52:13.485Z,99.90
2018-09-29T11:54:42.189Z,99.90
2018-09-29T11:57:10.926Z,99.90
2018-09-29T11:59:39.645Z,99.90
2018-09-29T12:02:08.431Z,99.90
2018-09-29T12:04:37.115Z,99.90
2018-09-29T12:07:06.116Z,99.90
2018-09-29T12:09:34.828Z,99.90
2018-09-29T12:29:26.744Z,99.60
2018-09-29T12:31:55.470Z,99.90
2018-09-29T12:34:24.191Z,98.50
2018-09-29T12:36:52.960Z,99.10
2018-09-29T12:39:21.626Z,99.60
2018-09-29T12:41:50.321Z,98.00
2018-09-29T12:44:19.123Z,97.20
2018-09-29T12:46:47.778Z,96.80
2018-09-29T12:49:16.494Z,95.70
2018-09-29T12:51:45.227Z,97.20
2018-09-29T12:54:13.915Z,95.80
2018-09-29T12:56:42.626Z,97.90
2018-09-29T12:59:11.347Z,96.50
2018-09-29T13:01:40.059Z,98.90
2018-09-29T13:04:23.400Z,97.20
2018-09-29T13:06:52.108Z,99.30
2018-09-29T13:09:20.834Z,95.80
2018-09-29T13:11:49.563Z,96.80
2018-09-29T13:14:18.266Z,93.90
2018-09-29T13:16:47.033Z,93.90
2018-09-29T13:19:15.714Z,96.10
2018-09-29T13:21:44.414Z,95.30
2018-09-29T13:24:13.125Z,95.20
2018-09-29T13:26:41.833Z,95.90
2018-09-29T13:29:10.542Z,96.60
2018-09-29T13:34:45.199Z,96.70
2018-09-29T13:37:13.957Z,95.50
2018-09-29T13:39:54.289Z,97.10
2018-09-29T13:42:22.994Z,96.60
2018-09-29T13:44:51.738Z,95.90
2018-09-29T13:47:20.445Z,94.90
2018-09-29T13:49:49.158Z,95.40
2018-09-29T13:52:17.887Z,96.20
2018-09-29T13:54:46.618Z,95.90
2018-09-29T13:57:15.317Z,94.10
2018-09-29T13:59:44.022Z,94.40
2018-09-29T14:13:43.100Z,94.00
2018-09-29T14:16:11.826Z,95.80
2018-09-29T14:18:40.558Z,94.30
2018-09-29T14:21:10.390Z,96.00
2018-09-29T14:23:39.098Z,95.40
2018-09-29T14:26:07.851Z,94.90
2018-09-29T14:28:36.579Z,94.30
2018-09-29T14:31:05.393Z,94.10
2018-09-29T14:33:34.114Z,95.70
2018-09-29T14:36:02.830Z,96.80
2018-09-29T14:38:31.525Z,95.30
2018-09-29T14:41:17.866Z,95.50
2018-09-29T14:43:46.590Z,95.20
2018-09-29T14:46:15.353Z,96.40
2018-09-29T14:48:44.025Z,97.10
2018-09-29T14:51:12.749Z,95.20
2018-09-29T14:53:41.457Z,96.30
2018-09-29T14:56:10.190Z,95.60
2018-09-29T14:58:38.908Z,94.90
2018-09-29T15:01:07.634Z,96.60
2018-09-29T15:03:36.341Z,96.50
2018-09-29T15:08:59.438Z,96.20
2018-09-29T15:11:28.150Z,96.00
2018-09-29T15:13:56.862Z,96.20
2018-09-29T15:16:25.595Z,96.10
2018-09-29T15:21:46.598Z,96.90
2018-09-29T15:24:15.306Z,96.10
2018-09-29T15:27:04.041Z,96.00
2018-09-29T15:29:32.752Z,97.10
2018-09-29T15:32:01.536Z,95.70
2018-09-29T15:34:32.317Z,95.30
2018-09-29T15:37:01.101Z,96.30
2018-09-29T15:39:29.744Z,97.20
2018-09-29T15:41:58.446Z,97.90
2018-09-29T15:44:27.155Z,97.70
2018-09-29T15:46:55.865Z,97.70
2018-09-29T15:49:24.584Z,97.50
2018-09-29T15:51:53.293Z,98.00
2018-09-29T15:54:22.022Z,97.40
2018-09-29T15:56:50.765Z,98.10
2018-09-29T15:59:19.474Z,97.60
2018-09-29T16:01:48.180Z,97.80
2018-09-29T16:07:07.954Z,98.30
2018-09-29T16:09:51.137Z,97.70
2018-09-29T16:12:19.841Z,99.10
2018-09-29T16:15:04.737Z,97.90
2018-09-29T16:17:33.441Z,96.90
2018-09-29T16:20:02.190Z,97.30
2018-09-29T16:22:30.947Z,98.10
2018-09-29T16:24:59.702Z,98.50
2018-09-29T16:27:28.485Z,98.20
2018-09-29T16:29:57.253Z,98.70
2018-09-29T16:32:26.040Z,98.90
2018-09-29T16:34:54.811Z,99.00
2018-09-29T16:40:15.130Z,99.00
2018-09-29T16:42:43.922Z,99.10
2018-09-29T16:45:12.726Z,98.90
2018-09-29T16:47:41.485Z,99.30
2018-09-29T16:50:10.309Z,99.60
2018-09-29T16:52:39.045Z,99.80
2018-09-29T16:55:12.998Z,99.90
2018-09-29T16:57:41.741Z,99.90
2018-09-29T17:00:10.490Z,99.90
2018-09-29T17:02:39.794Z,99.90
2018-09-29T17:05:08.974Z,99.90
2018-09-29T17:07:49.485Z,99.90
2018-09-29T17:10:18.218Z,99.90
2018-09-29T17:12:46.956Z,99.90
2018-09-29T17:15:15.711Z,99.90
2018-09-29T17:17:44.457Z,99.90
2018-09-29T17:20:13.456Z,99.90
2018-09-29T17:22:42.213Z,99.90
2018-09-29T17:25:11.194Z,99.90
2018-09-29T17:27:40.508Z,99.90
2018-09-29T17:30:09.490Z,99.90
2018-09-29T17:32:38.218Z,99.90
2018-09-29T17:35:07.009Z,99.90
2018-09-29T17:37:35.733Z,99.90
2018-09-29T17:40:04.538Z,99.90
2018-09-29T17:42:34.330Z,99.90
2018-09-29T17:45:03.098Z,99.90
2018-09-29T17:47:38.093Z,99.90
2018-09-29T17:50:08.211Z,99.90
2018-09-29T17:52:37.162Z,99.90
2018-09-29T17:55:05.869Z,99.90
2018-09-29T17:57:34.609Z,99.90
2018-09-29T18:00:06.633Z,99.90
2018-09-29T18:02:35.361Z,99.90
2018-09-29T18:05:04.131Z,99.90
2018-09-29T18:07:32.865Z,99.90
2018-09-29T18:10:01.650Z,99.90
2018-09-29T18:12:31.669Z,99.90
2018-09-29T18:15:00.397Z,99.90
2018-09-29T18:17:29.135Z,99.90
2018-09-29T18:19:57.877Z,99.90
2018-09-29T18:22:26.773Z,99.90
2018-09-29T18:25:05.425Z,99.90
2018-09-29T18:27:34.151Z,99.90
2018-09-29T18:30:02.884Z,99.90
2018-09-29T18:32:31.646Z,99.90
2018-09-29T18:35:00.382Z,99.90
2018-09-29T18:37:29.114Z,99.90
2018-09-29T18:39:57.866Z,99.90
2018-09-29T18:42:26.609Z,99.90
2018-09-29T18:45:02.062Z,99.90
2018-09-29T18:47:30.794Z,99.90
2018-09-29T18:49:59.650Z,99.90
2018-09-29T18:52:37.238Z,99.90
2018-09-29T18:55:05.994Z,99.90
2018-09-29T18:57:34.828Z,99.90
2018-09-29T19:00:03.667Z,99.90
2018-09-29T19:02:32.390Z,99.90
2018-09-29T19:05:01.133Z,99.90
2018-09-29T19:07:29.886Z,99.90
2018-09-29T19:12:49.795Z,99.90
2018-09-29T19:18:09.654Z,99.90
2018-09-29T19:20:38.398Z,99.90
2018-09-29T19:23:07.165Z,99.90
2018-09-29T19:25:35.888Z,99.90
2018-09-29T19:28:04.847Z,99.90
2018-09-29T19:30:35.051Z,99.90
2018-09-29T19:33:03.828Z,99.90
2018-09-29T19:35:32.757Z,99.90
2018-09-29T19:38:01.566Z,99.90
2018-09-29T19:40:30.662Z,99.90
2018-09-29T19:42:59.427Z,99.90
2018-09-29T19:45:28.233Z,99.90
2018-09-29T19:47:57.162Z,99.90
2018-09-29T19:50:25.946Z,99.90
2018-09-29T19:52:54.689Z,99.90
2018-09-29T19:55:23.502Z,99.90
2018-09-29T19:57:52.202Z,99.90
2018-09-29T20:00:20.943Z,99.90
2018-09-29T20:02:49.665Z,99.90
2018-09-29T20:05:18.403Z,99.90
2018-09-29T20:07:47.141Z,99.90
2018-09-29T20:10:15.947Z,99.90
2018-09-29T20:12:44.603Z,99.90
2018-09-29T20:15:13.333Z,99.90
2018-09-29T20:17:42.054Z,99.90
2018-09-29T20:20:10.815Z,99.90
2018-09-29T20:22:49.361Z,99.90
2018-09-29T20:25:18.090Z,99.90
2018-09-29T20:27:46.817Z,99.90
2018-09-29T20:30:15.550Z,99.90
2018-09-29T20:32:44.291Z,99.90
2018-09-29T20:35:13.014Z,99.90
2018-09-29T20:37:42.641Z,99.90
2018-09-29T20:40:11.762Z,99.90
2018-09-29T20:42:40.728Z,99.90
2018-09-29T20:45:09.420Z,99.90
2018-09-29T20:47:39.123Z,99.90
2018-09-29T20:50:07.838Z,99.90
2018-09-29T20:52:36.594Z,99.90
2018-09-29T20:55:05.498Z,99.90
2018-09-29T20:57:34.241Z,99.90
2018-09-29T21:00:02.999Z,99.90
2018-09-29T21:02:31.742Z,99.90
2018-09-29T21:05:00.637Z,99.90
2018-09-29T21:07:29.382Z,99.90
2018-09-29T21:09:58.126Z,99.90
2018-09-29T21:12:26.887Z,99.90
2018-09-29T21:14:55.617Z,99.90
2018-09-29T21:17:24.378Z,99.90
2018-09-29T21:19:53.209Z,99.90
2018-09-29T21:22:21.938Z,99.90
2018-09-29T21:24:50.665Z,99.90
2018-09-29T21:27:19.393Z,99.90
2018-09-29T21:29:48.123Z,99.90
2018-09-29T21:32:16.846Z,99.90
2018-09-29T21:34:45.597Z,99.90
2018-09-29T21:37:14.333Z,99.90
2018-09-29T21:39:43.061Z,99.90
2018-09-29T21:42:11.827Z,99.90
2018-09-29T21:50:35.391Z,99.90
2018-09-29T21:53:04.109Z,99.90
2018-09-29T21:55:32.854Z,99.90
2018-09-29T21:58:01.624Z,99.90
2018-09-29T22:00:35.622Z,99.90
2018-09-29T22:03:04.341Z,99.90
2018-09-29T22:05:33.068Z,99.90
2018-09-29T22:08:01.813Z,99.90
2018-09-29T22:10:30.530Z,99.90
2018-09-29T22:12:59.265Z,99.90
2018-09-29T22:18:02.243Z,99.90
2018-09-29T22:20:30.965Z,99.90
2018-09-29T22:22:59.702Z,99.90
2018-09-29T22:25:28.430Z,99.90
2018-09-29T22:27:57.167Z,99.90
2018-09-29T22:30:25.909Z,99.90
2018-09-29T22:32:54.649Z,99.90
2018-09-29T22:35:23.361Z,99.90
2018-09-29T22:37:52.127Z,99.90
2018-09-29T22:40:20.849Z,99.90
2018-09-29T22:42:49.581Z,99.90
2018-09-29T22:45:18.317Z,99.90
2018-09-29T22:47:47.070Z,99.90
2018-09-29T22:50:15.830Z,99.90
2018-09-29T22:52:44.553Z,99.90
2018-09-29T22:55:13.287Z,99.90
2018-09-29T22:57:42.018Z,99.90
2018-09-29T23:00:10.741Z,99.90
2018-09-29T23:02:39.465Z,99.90
2018-09-29T23:05:08.221Z,99.90
2018-09-29T23:07:36.949Z,99.90
2018-09-29T23:10:05.682Z,99.90
2018-09-29T23:12:34.405Z,99.90
2018-09-29T23:15:03.125Z,99.90
2018-09-29T23:17:31.854Z,99.90
2018-09-29T23:20:00.614Z,99.90
2018-09-29T23:22:29.377Z,99.90
2018-09-29T23:24:58.095Z,99.90
2018-09-29T23:27:26.825Z,99.90
2018-09-29T23:29:55.541Z,99.90
2018-09-29T23:32:24.262Z,99.90
2018-09-29T23:34:52.993Z,99.90
2018-09-29T23:37:21.706Z,99.90
2018-09-29T23:39:50.458Z,99.90
2018-09-29T23:42:19.173Z,99.90
2018-09-29T23:44:47.898Z,99.90
2018-09-29T23:47:16.621Z,99.90
2018-09-29T23:49:45.337Z,99.90
2018-09-29T23:52:14.065Z,99.90
2018-09-29T23:54:42.798Z,99.90
2018-09-29T23:57:11.534Z,99.90
2018-09-29T23:59:40.290Z,99.90
